Terminal Aerodrome Forecast
Issued by NWS Wilmington, OH

Current Version | Previous Version | Graphics & Text | Print | Product List | Glossary On
Versions: 1 2 3 4 5 6 7 8 9 10 11 12 13 14 15 16 17 18 19 20 21 22 23
000
FTUS41 KILN 232300
TAFDAY
TAF
KDAY 232338Z 2400/2424 10004KT 1/2SM FG OVC002
     FM240200 12006KT 3SM BR OVC004
      TEMPO 2402/2404 4SM -SHRA BR OVC005
     FM240400 12010KT 5SM BR VCSH OVC004
     FM241300 15011KT 5SM -SHRA BR OVC005
     FM241600 18018G25KT P6SM VCSH OVC010
     FM241800 23022G34KT P6SM VCSH BKN015
     FM242100 25025G40KT P6SM VCSH BKN020=

USA.gov is the U.S. government's official web portal to all federal, state and local government web resources and services.